createdAt,value
2018-11-06T00:02:00.127Z,23.20
2018-11-06T00:04:33.907Z,19.47
2018-11-06T00:07:02.452Z,21.30
2018-11-06T00:09:30.982Z,21.53
2018-11-06T00:11:59.539Z,22.33
2018-11-06T00:14:28.028Z,22.87
2018-11-06T00:16:56.540Z,22.13
2018-11-06T00:19:25.325Z,20.00
2018-11-06T00:21:53.856Z,22.43
2018-11-06T00:24:22.439Z,21.53
2018-11-06T00:26:50.994Z,20.37
2018-11-06T00:29:19.510Z,17.23
2018-11-06T00:31:48.042Z,16.07
2018-11-06T00:34:16.633Z,18.07
2018-11-06T00:36:45.064Z,19.53
2018-11-06T00:39:13.598Z,18.67
2018-11-06T00:41:42.135Z,17.90
2018-11-06T00:44:10.634Z,17.63
2018-11-06T00:46:39.985Z,20.57
2018-11-06T00:49:08.590Z,17.23
2018-11-06T00:51:37.487Z,19.70
2018-11-06T00:54:06.668Z,22.53
2018-11-06T00:56:35.163Z,18.97
2018-11-06T00:59:03.712Z,16.27
2018-11-06T01:01:32.234Z,19.53
2018-11-06T01:04:06.130Z,18.53
2018-11-06T01:06:34.640Z,18.07
2018-11-06T01:09:03.287Z,20.17
2018-11-06T01:12:56.193Z,19.30
2018-11-06T01:15:24.726Z,16.63
2018-11-06T01:17:53.237Z,16.87
2018-11-06T01:20:21.743Z,16.87
2018-11-06T01:22:50.264Z,15.43
2018-11-06T01:25:18.729Z,16.63
2018-11-06T01:27:47.280Z,17.80
2018-11-06T01:30:18.222Z,17.63
2018-11-06T01:32:47.101Z,17.13
2018-11-06T01:35:16.115Z,16.43
2018-11-06T01:37:45.293Z,17.30
2018-11-06T01:40:14.896Z,16.70
2018-11-06T01:42:44.026Z,16.70
2018-11-06T01:45:13.788Z,16.27
2018-11-06T01:47:42.473Z,19.23
2018-11-06T01:50:15.570Z,17.77
2018-11-06T01:52:45.081Z,18.03
2018-11-06T01:55:13.663Z,18.10
2018-11-06T01:57:42.247Z,18.80
2018-11-06T02:00:13.661Z,16.90
2018-11-06T02:02:42.395Z,16.93
2018-11-06T02:05:12.642Z,15.87
2018-11-06T02:07:41.909Z,13.93
2018-11-06T02:10:11.972Z,16.20
2018-11-06T02:12:40.855Z,17.00
2018-11-06T02:15:09.891Z,16.23
2018-11-06T02:17:39.414Z,15.97
2018-11-06T02:20:08.661Z,17.67
2018-11-06T02:22:37.146Z,15.10
2018-11-06T02:25:06.433Z,14.07
2018-11-06T02:27:34.973Z,17.30
2018-11-06T02:30:03.552Z,15.10
2018-11-06T02:32:32.180Z,16.17
2018-11-06T02:35:00.582Z,16.23
2018-11-06T02:37:29.127Z,14.00
2018-11-06T02:39:57.678Z,16.53
2018-11-06T02:42:26.167Z,16.33
2018-11-06T02:44:54.707Z,16.50
2018-11-06T02:47:23.197Z,16.10
2018-11-06T02:49:51.749Z,19.73
2018-11-06T02:52:20.282Z,15.10
2018-11-06T02:54:48.808Z,15.60
2018-11-06T02:57:17.310Z,15.60
2018-11-06T02:59:45.828Z,18.10
2018-11-06T03:02:14.353Z,15.43
2018-11-06T03:04:42.849Z,16.87
2018-11-06T03:07:11.347Z,14.07
2018-11-06T03:09:39.896Z,16.47
2018-11-06T03:12:08.414Z,13.50
2018-11-06T03:14:36.914Z,14.37
2018-11-06T03:17:05.832Z,12.73
2018-11-06T03:19:34.238Z,14.40
2018-11-06T03:22:02.753Z,14.17
2018-11-06T03:24:31.310Z,14.07
2018-11-06T03:26:59.880Z,13.43
2018-11-06T03:29:28.305Z,14.13
2018-11-06T03:31:56.836Z,16.70
2018-11-06T03:34:25.360Z,14.83
2018-11-06T03:36:53.896Z,16.97
2018-11-06T03:39:22.385Z,13.87
2018-11-06T03:41:50.947Z,16.33
2018-11-06T03:44:19.455Z,16.67
2018-11-06T03:46:47.958Z,14.83
2018-11-06T03:49:16.440Z,15.57
2018-11-06T03:51:44.957Z,23.33
2018-11-06T03:54:13.501Z,14.40
2018-11-06T03:56:42.005Z,15.73
2018-11-06T03:59:10.466Z,15.73
2018-11-06T04:01:39.001Z,17.73
2018-11-06T04:04:07.509Z,17.40
2018-11-06T04:06:36.054Z,14.83
2018-11-06T04:09:06.673Z,13.80
2018-11-06T04:11:35.214Z,13.23
2018-11-06T04:14:03.698Z,13.17
2018-11-06T04:16:32.228Z,14.27
2018-11-06T04:19:00.695Z,13.97
2018-11-06T04:21:35.002Z,15.13
2018-11-06T04:24:03.937Z,13.33
2018-11-06T04:26:32.413Z,13.33
2018-11-06T04:29:00.884Z,14.20
2018-11-06T04:31:29.387Z,15.83
2018-11-06T04:33:57.862Z,12.67
2018-11-06T04:36:26.369Z,14.43
2018-11-06T04:38:54.846Z,13.67
2018-11-06T04:41:23.397Z,13.37
2018-11-06T04:43:52.400Z,12.93
2018-11-06T04:46:21.080Z,13.30
2018-11-06T04:48:50.233Z,12.37
2018-11-06T04:51:19.006Z,13.43
2018-11-06T04:53:47.470Z,12.37
2018-11-06T04:56:16.006Z,12.50
2018-11-06T04:58:44.512Z,13.03
2018-11-06T05:01:13.025Z,11.93
2018-11-06T05:03:45.707Z,11.23
2018-11-06T05:06:14.321Z,12.90
2018-11-06T05:08:42.805Z,14.33
2018-11-06T05:11:11.301Z,13.57
2018-11-06T05:13:39.767Z,15.50
2018-11-06T05:17:37.394Z,14.23
2018-11-06T05:20:08.712Z,14.70
2018-11-06T05:22:37.273Z,13.90
2018-11-06T05:25:06.547Z,13.10
2018-11-06T05:27:35.092Z,14.17
2018-11-06T05:30:03.567Z,12.87
2018-11-06T05:32:32.089Z,13.43
2018-11-06T05:35:00.705Z,14.73
2018-11-06T05:37:29.082Z,14.60
2018-11-06T05:41:08.750Z,14.20
2018-11-06T05:43:38.196Z,15.00
2018-11-06T05:46:06.819Z,13.70
2018-11-06T05:48:35.329Z,15.20
2018-11-06T05:51:03.872Z,13.80
2018-11-06T05:53:32.369Z,14.27
2018-11-06T05:56:00.863Z,15.00
2018-11-06T05:58:29.370Z,14.73
2018-11-06T06:00:57.850Z,12.50
2018-11-06T06:03:26.367Z,13.67
2018-11-06T06:05:54.832Z,14.03
2018-11-06T06:08:23.336Z,14.47
2018-11-06T06:10:51.928Z,13.50
2018-11-06T06:13:20.421Z,15.00
2018-11-06T06:15:48.910Z,14.30
2018-11-06T06:18:17.408Z,14.70
2018-11-06T06:20:45.902Z,14.17
2018-11-06T06:23:14.427Z,14.67
2018-11-06T06:25:42.918Z,13.67
2018-11-06T06:28:11.463Z,13.43
2018-11-06T06:30:40.003Z,13.93
2018-11-06T06:33:08.569Z,15.63
2018-11-06T06:35:37.100Z,14.90
2018-11-06T06:38:06.114Z,13.80
2018-11-06T06:40:34.639Z,14.53
2018-11-06T06:43:03.190Z,14.30
2018-11-06T06:45:31.687Z,12.93
2018-11-06T06:48:00.250Z,14.83
2018-11-06T06:50:28.744Z,13.77
2018-11-06T06:52:57.267Z,14.40
2018-11-06T06:55:25.807Z,15.83
2018-11-06T06:58:03.311Z,13.80
2018-11-06T07:00:51.248Z,11.77
2018-11-06T07:03:21.193Z,12.80
2018-11-06T07:05:49.655Z,14.70
2018-11-06T07:08:18.771Z,13.53
2018-11-06T07:10:47.264Z,12.57
2018-11-06T07:13:15.835Z,12.77
2018-11-06T07:15:44.333Z,10.83
2018-11-06T07:18:12.890Z,12.17
2018-11-06T07:20:42.073Z,10.57
2018-11-06T07:23:10.711Z,11.10
2018-11-06T07:25:39.210Z,13.60
2018-11-06T07:28:08.095Z,16.07
2018-11-06T07:30:37.925Z,12.77
2018-11-06T07:33:06.439Z,11.03
2018-11-06T07:35:35.196Z,10.47
2018-11-06T07:38:03.673Z,9.50
2018-11-06T07:40:32.259Z,9.40
2018-11-06T07:43:02.700Z,9.17
2018-11-06T07:45:31.849Z,8.63
2018-11-06T07:48:00.353Z,8.13
2018-11-06T07:50:28.851Z,7.90
2018-11-06T07:52:57.312Z,7.70
2018-11-06T07:55:25.858Z,7.47
2018-11-06T07:57:54.425Z,8.17
2018-11-06T08:00:25.347Z,10.30
2018-11-06T08:02:53.858Z,9.20
2018-11-06T08:05:22.431Z,8.13
2018-11-06T08:07:51.624Z,7.67
2018-11-06T08:10:20.147Z,7.43
2018-11-06T08:12:50.089Z,7.23
2018-11-06T08:15:18.629Z,7.57
2018-11-06T08:17:47.317Z,7.73
2018-11-06T08:20:15.880Z,7.20
2018-11-06T08:22:44.403Z,8.23
2018-11-06T08:25:14.199Z,8.20
2018-11-06T08:27:43.594Z,6.87
2018-11-06T08:30:12.685Z,8.23
2018-11-06T08:32:41.693Z,7.60
2018-11-06T08:35:12.284Z,7.27
2018-11-06T08:37:41.192Z,7.97
2018-11-06T08:40:11.436Z,8.27
2018-11-06T08:42:40.585Z,6.50
2018-11-06T08:45:10.848Z,6.53
2018-11-06T08:47:40.170Z,8.40
2018-11-06T08:50:11.276Z,7.80
2018-11-06T08:52:42.626Z,6.63
2018-11-06T08:55:12.336Z,7.62
2018-11-06T08:57:41.601Z,6.80
2018-11-06T09:00:16.496Z,6.95
2018-11-06T09:02:46.407Z,7.90
2018-11-06T09:05:20.601Z,7.60
2018-11-06T09:07:51.330Z,8.00
2018-11-06T09:10:19.901Z,6.58
2018-11-06T09:12:48.402Z,6.67
2018-11-06T09:15:19.717Z,6.35
2018-11-06T09:17:48.245Z,7.20
2018-11-06T09:20:18.205Z,7.35
2018-11-06T09:22:46.739Z,7.00
2018-11-06T09:25:16.782Z,7.00
2018-11-06T09:27:45.841Z,6.65
2018-11-06T09:30:15.699Z,8.58
2018-11-06T09:32:44.255Z,6.20
2018-11-06T09:35:15.549Z,6.40
2018-11-06T09:37:44.610Z,6.10
2018-11-06T09:40:17.745Z,7.47
2018-11-06T09:42:46.985Z,6.58
2018-11-06T09:45:15.791Z,6.20
2018-11-06T09:47:45.794Z,5.80
2018-11-06T09:50:16.742Z,6.72
2018-11-06T09:52:45.926Z,6.15
2018-11-06T09:55:16.076Z,6.10
2018-11-06T09:57:44.896Z,6.20
2018-11-06T10:00:17.893Z,6.10
2018-11-06T10:02:46.439Z,5.90
2018-11-06T10:05:15.297Z,5.83
2018-11-06T10:07:44.238Z,5.70
2018-11-06T10:10:21.103Z,6.20
2018-11-06T10:12:49.639Z,5.90
2018-11-06T10:15:19.699Z,5.55
2018-11-06T10:17:50.405Z,6.30
2018-11-06T10:20:21.109Z,5.28
2018-11-06T10:22:49.622Z,4.85
2018-11-06T10:26:42.526Z,5.05
2018-11-06T10:29:11.020Z,4.90
2018-11-06T10:31:39.640Z,5.08
2018-11-06T10:34:08.179Z,4.97
2018-11-06T10:36:36.724Z,4.60
2018-11-06T10:39:08.107Z,4.83
2018-11-06T10:41:36.798Z,4.60
2018-11-06T10:44:05.689Z,4.93
2018-11-06T10:46:34.980Z,4.50
2018-11-06T10:49:03.661Z,4.70
2018-11-06T10:51:32.245Z,4.20
2018-11-06T10:54:00.804Z,4.25
2018-11-06T10:56:29.348Z,4.30
2018-11-06T10:58:57.944Z,4.30
2018-11-06T11:01:31.753Z,4.20
2018-11-06T11:04:05.671Z,4.13
2018-11-06T11:06:34.305Z,4.50
2018-11-06T11:09:02.876Z,4.60
2018-11-06T11:11:31.524Z,4.97
2018-11-06T11:14:00.143Z,4.53
2018-11-06T11:16:28.811Z,4.80
2018-11-06T11:18:57.367Z,4.03
2018-11-06T11:21:26.032Z,4.30
2018-11-06T11:23:54.530Z,5.10
2018-11-06T11:26:23.038Z,3.97
2018-11-06T11:28:51.576Z,3.73
2018-11-06T11:31:20.142Z,3.50
2018-11-06T11:33:48.713Z,4.20
2018-11-06T11:36:17.300Z,3.50
2018-11-06T11:38:45.795Z,4.00
2018-11-06T11:41:15.510Z,4.37
2018-11-06T11:43:45.681Z,3.80
2018-11-06T11:46:14.199Z,3.43
2018-11-06T11:48:42.911Z,3.70
2018-11-06T11:51:11.458Z,3.87
2018-11-06T11:53:39.977Z,4.37
2018-11-06T11:56:08.480Z,3.23
2018-11-06T11:58:39.607Z,3.40
2018-11-06T12:01:08.158Z,3.23
2018-11-06T12:03:36.690Z,3.20
2018-11-06T12:06:05.238Z,3.37
2018-11-06T12:08:33.746Z,3.90
2018-11-06T12:11:02.410Z,3.90
2018-11-06T12:13:30.911Z,4.20
2018-11-06T12:15:59.380Z,3.63
2018-11-06T12:18:27.970Z,4.33
2018-11-06T12:20:56.481Z,3.50
2018-11-06T12:23:24.998Z,3.87
2018-11-06T12:25:53.624Z,4.00
2018-11-06T12:28:22.059Z,3.93
2018-11-06T12:30:50.593Z,3.70
2018-11-06T12:33:19.089Z,3.70
2018-11-06T12:35:47.622Z,4.03
2018-11-06T12:38:16.168Z,3.90
2018-11-06T12:40:44.661Z,3.50
2018-11-06T12:43:13.259Z,3.30
2018-11-06T12:45:41.674Z,3.93
2018-11-06T12:48:10.209Z,3.30
2018-11-06T12:50:38.709Z,3.60
2018-11-06T12:53:07.217Z,3.00
2018-11-06T12:55:35.710Z,4.57
2018-11-06T12:58:04.247Z,3.03
2018-11-06T13:00:32.854Z,2.57
2018-11-06T13:03:02.403Z,3.33
2018-11-06T13:05:30.994Z,2.40
2018-11-06T13:07:59.497Z,2.63
2018-11-06T13:10:28.013Z,3.07
2018-11-06T13:12:56.854Z,2.40
2018-11-06T13:15:25.406Z,2.70
2018-11-06T13:17:53.851Z,2.90
2018-11-06T13:20:22.322Z,2.63
2018-11-06T13:22:50.851Z,2.50
2018-11-06T13:25:20.379Z,3.17
2018-11-06T13:27:48.876Z,2.43
2018-11-06T13:30:18.629Z,2.20
2018-11-06T13:32:47.869Z,2.60
2018-11-06T13:35:16.486Z,2.23
2018-11-06T13:37:46.435Z,4.63
2018-11-06T13:40:15.975Z,2.60
2018-11-06T13:42:44.718Z,2.20
2018-11-06T13:45:15.100Z,2.10
2018-11-06T13:47:43.578Z,6.33
2018-11-06T13:50:12.112Z,7.97
2018-11-06T13:52:40.616Z,7.77
2018-11-06T13:55:10.779Z,7.65
2018-11-06T13:57:41.726Z,7.43
2018-11-06T14:00:12.220Z,7.20
2018-11-06T14:02:40.702Z,7.33
2018-11-06T14:05:09.243Z,6.83
2018-11-06T14:07:37.724Z,6.80
2018-11-06T14:10:07.084Z,7.67
2018-11-06T14:12:35.922Z,7.28
2018-11-06T14:15:06.425Z,7.95
2018-11-06T14:17:39.915Z,9.63
2018-11-06T14:20:11.132Z,9.85
2018-11-06T14:22:39.700Z,9.53
2018-11-06T14:25:08.747Z,10.10
2018-11-06T14:27:37.603Z,10.10
2018-11-06T14:30:10.029Z,9.97
2018-11-06T14:32:38.631Z,10.20
2018-11-06T14:35:08.481Z,10.53
2018-11-06T14:37:36.934Z,10.73
2018-11-06T14:40:06.774Z,10.00
2018-11-06T14:42:35.408Z,10.97
2018-11-06T14:45:04.003Z,13.40
2018-11-06T14:47:32.562Z,10.97
2018-11-06T14:50:01.070Z,10.97
2018-11-06T14:52:29.559Z,11.17
2018-11-06T14:54:58.107Z,11.17
2018-11-06T14:57:26.586Z,10.50
2018-11-06T14:59:55.103Z,11.30
2018-11-06T15:02:23.625Z,10.70
2018-11-06T15:04:52.147Z,12.23
2018-11-06T15:07:20.622Z,10.93
2018-11-06T15:09:49.171Z,11.20
2018-11-06T15:12:17.668Z,10.27
2018-11-06T15:14:46.414Z,10.97
2018-11-06T15:17:14.919Z,11.27
2018-11-06T15:19:43.426Z,11.20
2018-11-06T15:22:11.949Z,11.40
2018-11-06T15:24:40.484Z,11.53
2018-11-06T15:27:08.989Z,10.67
2018-11-06T15:29:37.507Z,11.27
2018-11-06T15:32:06.058Z,11.27
2018-11-06T15:34:34.591Z,10.87
2018-11-06T15:37:03.098Z,11.30
2018-11-06T15:39:31.652Z,12.03
2018-11-06T15:42:00.306Z,11.93
2018-11-06T15:44:28.658Z,11.37
2018-11-06T15:46:57.154Z,12.17
2018-11-06T15:49:25.689Z,13.00
2018-11-06T15:51:54.184Z,14.30
2018-11-06T15:54:22.668Z,12.57
2018-11-06T15:56:51.215Z,12.97
2018-11-06T15:59:19.685Z,13.17
2018-11-06T16:01:48.233Z,13.53
2018-11-06T16:04:16.659Z,13.73
2018-11-06T16:06:45.164Z,14.43
2018-11-06T16:09:13.626Z,15.60
2018-11-06T16:11:42.132Z,15.37
2018-11-06T16:14:10.639Z,14.10
2018-11-06T16:16:39.131Z,14.90
2018-11-06T16:19:08.121Z,14.80
2018-11-06T16:21:36.631Z,14.27
2018-11-06T16:24:05.197Z,16.60
2018-11-06T16:26:33.670Z,15.13
2018-11-06T16:29:02.179Z,15.57
2018-11-06T16:31:30.779Z,14.30
2018-11-06T16:33:59.622Z,14.83
2018-11-06T16:36:28.227Z,15.27
2018-11-06T16:39:01.379Z,15.70
2018-11-06T16:41:49.882Z,15.93
2018-11-06T16:44:27.774Z,14.60
2018-11-06T16:47:08.447Z,15.43
2018-11-06T16:49:39.071Z,14.43
2018-11-06T16:52:13.806Z,15.40
2018-11-06T16:57:50.491Z,16.60
2018-11-06T17:00:24.665Z,15.73
2018-11-06T17:02:56.059Z,16.07
2018-11-06T17:05:25.373Z,17.07
2018-11-06T17:07:55.168Z,15.60
2018-11-06T17:10:26.309Z,17.73
2018-11-06T17:12:54.920Z,18.43
2018-11-06T17:15:24.101Z,17.60
2018-11-06T17:17:53.463Z,18.77
2018-11-06T17:20:22.450Z,17.13
2018-11-06T17:22:51.068Z,19.13
2018-11-06T17:25:20.839Z,17.10
2018-11-06T17:27:49.366Z,15.73
2018-11-06T17:30:18.699Z,15.90
2018-11-06T17:32:47.216Z,15.57
2018-11-06T17:35:17.132Z,16.00
2018-11-06T17:37:45.911Z,17.13
2018-11-06T17:40:15.739Z,16.50
2018-11-06T17:42:44.527Z,15.80
2018-11-06T17:45:14.709Z,16.13
2018-11-06T17:47:43.456Z,17.40
2018-11-06T17:50:13.236Z,22.23
2018-11-06T17:52:41.743Z,21.30
2018-11-06T17:55:11.999Z,24.27
2018-11-06T17:57:40.876Z,19.90
2018-11-06T18:00:13.212Z,19.60
2018-11-06T18:02:41.761Z,22.53
2018-11-06T18:05:11.578Z,21.20
2018-11-06T18:07:40.796Z,19.93
2018-11-06T18:10:10.397Z,21.00
2018-11-06T18:12:38.899Z,20.53
2018-11-06T18:15:07.493Z,29.60
2018-11-06T18:17:36.149Z,24.17
2018-11-06T18:20:04.902Z,23.07
2018-11-06T18:22:33.367Z,22.80
2018-11-06T18:25:01.920Z,22.97
2018-11-06T18:27:30.398Z,20.80
2018-11-06T18:29:58.880Z,20.60
2018-11-06T18:32:27.436Z,21.57
2018-11-06T18:34:56.324Z,21.90
2018-11-06T18:37:24.822Z,21.87
2018-11-06T18:39:53.298Z,25.33
2018-11-06T18:42:21.816Z,21.33
2018-11-06T18:44:50.310Z,20.30
2018-11-06T18:47:18.816Z,19.83
2018-11-06T18:49:47.369Z,20.30
2018-11-06T18:52:15.782Z,20.00
2018-11-06T18:54:44.289Z,20.10
2018-11-06T18:57:12.840Z,20.67
2018-11-06T18:59:41.373Z,21.10
2018-11-06T19:02:09.889Z,20.87
2018-11-06T19:04:38.389Z,22.40
2018-11-06T19:07:07.119Z,22.00
2018-11-06T19:09:35.644Z,25.07
2018-11-06T19:12:04.175Z,25.10
2018-11-06T19:14:32.693Z,24.70
2018-11-06T19:17:01.328Z,23.07
2018-11-06T19:19:29.821Z,24.50
2018-11-06T19:21:58.414Z,21.93
2018-11-06T19:24:26.887Z,22.47
2018-11-06T19:26:55.492Z,24.27
2018-11-06T19:29:24.393Z,23.67
2018-11-06T19:31:52.923Z,21.00
2018-11-06T19:34:21.383Z,23.57
2018-11-06T19:36:49.882Z,23.43
2018-11-06T19:39:18.360Z,22.30
2018-11-06T19:41:46.873Z,30.13
2018-11-06T19:44:15.360Z,27.50
2018-11-06T19:46:43.911Z,26.40
2018-11-06T19:49:12.388Z,30.93
2018-11-06T19:51:40.889Z,26.63
2018-11-06T19:54:12.870Z,24.03
2018-11-06T19:56:41.404Z,24.07
2018-11-06T19:59:09.881Z,22.07
2018-11-06T20:01:38.389Z,22.57
2018-11-06T20:04:06.998Z,21.63
2018-11-06T20:06:35.499Z,23.13
2018-11-06T20:09:05.650Z,21.83
2018-11-06T20:11:34.218Z,26.33
2018-11-06T20:14:02.682Z,22.90
2018-11-06T20:16:31.198Z,22.70
2018-11-06T20:18:59.685Z,23.93
2018-11-06T20:21:28.170Z,22.23
2018-11-06T20:23:56.650Z,22.47
2018-11-06T20:26:25.112Z,23.63
2018-11-06T20:28:53.606Z,22.53
2018-11-06T20:31:22.092Z,19.90
2018-11-06T20:33:50.693Z,22.97
2018-11-06T20:36:19.118Z,19.83
2018-11-06T20:38:47.639Z,20.73
2018-11-06T20:41:16.109Z,21.90
2018-11-06T20:43:44.580Z,22.67
2018-11-06T20:46:13.089Z,24.87
2018-11-06T20:48:41.638Z,22.83
2018-11-06T20:51:10.088Z,26.70
2018-11-06T20:53:38.680Z,22.33
2018-11-06T20:56:07.409Z,25.40
2018-11-06T20:58:35.962Z,25.43
2018-11-06T21:01:04.488Z,23.77
2018-11-06T21:03:32.977Z,24.27
2018-11-06T21:06:01.453Z,22.07
2018-11-06T21:08:29.973Z,24.67
2018-11-06T21:10:58.543Z,27.07
2018-11-06T21:13:27.039Z,30.07
2018-11-06T21:15:55.473Z,24.37
2018-11-06T21:18:24.027Z,28.03
2018-11-06T21:20:52.546Z,25.43
2018-11-06T21:23:21.154Z,25.03
2018-11-06T21:25:49.861Z,23.63
2018-11-06T21:28:18.347Z,24.13
2018-11-06T21:30:46.844Z,28.87
2018-11-06T21:33:15.393Z,27.57
2018-11-06T21:35:43.895Z,23.93
2018-11-06T21:38:12.369Z,22.70
2018-11-06T21:40:41.082Z,23.50
2018-11-06T21:43:09.595Z,22.97
2018-11-06T21:45:38.084Z,21.20
2018-11-06T21:48:06.740Z,21.83
2018-11-06T21:50:35.217Z,21.53
2018-11-06T21:53:03.787Z,21.03
2018-11-06T21:55:38.584Z,22.10
2018-11-06T21:58:07.147Z,22.73
2018-11-06T22:00:35.701Z,24.40
2018-11-06T22:03:04.255Z,26.33
2018-11-06T22:05:32.747Z,23.10
2018-11-06T22:08:01.293Z,21.10
2018-11-06T22:10:30.874Z,21.93
2018-11-06T22:12:59.585Z,21.83
2018-11-06T22:15:37.026Z,24.33
2018-11-06T22:18:06.220Z,24.27
2018-11-06T22:20:34.780Z,23.50
2018-11-06T22:23:03.312Z,19.83
2018-11-06T22:25:31.876Z,22.77
2018-11-06T22:28:01.438Z,20.70
2018-11-06T22:30:30.170Z,21.00
2018-11-06T22:32:58.691Z,23.73
2018-11-06T22:35:27.223Z,21.80
2018-11-06T22:37:55.736Z,23.23
2018-11-06T22:40:25.458Z,21.90
2018-11-06T22:42:53.947Z,24.27
2018-11-06T22:45:22.494Z,22.93
2018-11-06T22:47:50.982Z,23.10
2018-11-06T22:50:19.552Z,22.30
2018-11-06T22:52:51.119Z,24.13
2018-11-06T22:55:19.664Z,22.40
2018-11-06T22:57:48.185Z,21.47
2018-11-06T23:00:23.692Z,22.70
2018-11-06T23:02:53.705Z,22.27
2018-11-06T23:05:22.214Z,22.60
2018-11-06T23:07:55.958Z,24.10
2018-11-06T23:10:24.601Z,22.60
2018-11-06T23:12:53.101Z,24.40
2018-11-06T23:15:21.635Z,24.87
2018-11-06T23:17:50.126Z,21.40
2018-11-06T23:20:18.651Z,23.50
2018-11-06T23:22:47.167Z,24.17
2018-11-06T23:25:15.686Z,25.23
2018-11-06T23:27:44.194Z,32.93
2018-11-06T23:30:14.262Z,31.27
2018-11-06T23:32:42.838Z,29.03
2018-11-06T23:35:11.434Z,26.27
2018-11-06T23:37:40.713Z,26.83
2018-11-06T23:40:10.162Z,24.30
2018-11-06T23:42:38.674Z,25.67
2018-11-06T23:45:07.831Z,23.80
2018-11-06T23:47:36.374Z,22.73
2018-11-06T23:50:05.004Z,22.63
2018-11-06T23:52:33.515Z,24.10
2018-11-06T23:55:02.065Z,26.27
2018-11-06T23:57:31.080Z,24.27
